Time;durP1;ratioP1;P1;durP2;ratioP2;P2;SDS_P1;SDS_P2;PMS_P1;PMS_P2;Temp;Humidity;BMP_temperature;BMP_pressure;BME280_temperature;BME280_humidity;BME280_pressure;Samples;Min_cycle;Max_cycle;Signal;HPM_P1;HPM_P2
2023/04/09 00:00:49;;;;;;;;;29.60;27.20;;;;;4.59;79.56;100828.66;5098667;28;8868;-59
2023/04/09 00:03:17;;;;;;;;;18.80;17.00;;;;;4.56;79.97;100823.50;5099126;28;8952;-59
2023/04/09 00:05:45;;;;;;;;;21.60;21.60;;;;;4.52;80.24;100828.94;5098713;28;8830;-61
2023/04/09 00:08:13;;;;;;;;;22.20;22.20;;;;;4.47;80.14;100829.16;5098870;28;8830;-60
2023/04/09 00:10:40;;;;;;;;;30.60;29.20;;;;;4.42;80.30;100832.91;5098893;28;8806;-61
2023/04/09 00:13:08;;;;;;;;;20.80;16.20;;;;;4.35;80.15;100829.63;5099022;28;8853;-60
2023/04/09 00:15:36;;;;;;;;;24.60;22.40;;;;;4.31;80.51;100833.31;5097966;28;8874;-58
2023/04/09 00:18:04;;;;;;;;;23.20;22.60;;;;;4.25;80.05;100835.34;5098732;28;8964;-60
2023/04/09 00:20:32;;;;;;;;;27.40;22.80;;;;;4.20;80.02;100834.66;5098385;28;8948;-59
2023/04/09 00:23:00;;;;;;;;;25.00;20.40;;;;;4.15;79.96;100829.59;5098382;28;8830;-59
2023/04/09 00:25:28;;;;;;;;;22.20;21.60;;;;;4.12;80.04;100836.75;5098606;28;8830;-58
2023/04/09 00:27:56;;;;;;;;;19.00;16.40;;;;;4.08;80.46;100825.47;5098187;28;8865;-59
2023/04/09 00:30:24;;;;;;;;;22.20;21.00;;;;;4.05;80.58;100830.00;5098447;28;8857;-60
2023/04/09 00:32:51;;;;;;;;;12.40;8.80;;;;;4.03;80.48;100834.47;5098125;28;8956;-58
2023/04/09 00:35:19;;;;;;;;;16.40;16.20;;;;;4.01;80.56;100823.13;5098182;28;8837;-59
2023/04/09 00:37:47;;;;;;;;;21.20;19.00;;;;;3.98;80.34;100824.09;5098194;28;8861;-60
2023/04/09 00:40:14;;;;;;;;;17.60;16.80;;;;;3.95;80.57;100818.94;5097989;28;8853;-61
2023/04/09 00:42:42;;;;;;;;;18.80;16.20;;;;;3.93;80.61;100825.19;5098677;28;8858;-58
2023/04/09 00:45:10;;;;;;;;;15.20;12.00;;;;;3.91;80.67;100821.78;5097118;28;8849;-59
2023/04/09 00:47:38;;;;;;;;;15.80;14.60;;;;;3.88;80.29;100814.00;5097571;28;8846;-61
2023/04/09 00:50:05;;;;;;;;;15.00;12.80;;;;;3.86;80.24;100818.44;5097624;28;8858;-59
2023/04/09 00:52:33;;;;;;;;;15.00;15.00;;;;;3.83;80.76;100821.22;5097487;28;8822;-59
2023/04/09 00:55:01;;;;;;;;;8.20;7.80;;;;;3.80;80.55;100822.19;5097896;28;8842;-60
2023/04/09 00:57:29;;;;;;;;;21.60;19.00;;;;;3.77;80.32;100817.97;5097350;28;8829;-59
2023/04/09 00:59:57;;;;;;;;;12.20;12.00;;;;;3.77;80.26;100823.22;5097577;28;8888;-58
2023/04/09 01:02:24;;;;;;;;;19.00;18.20;;;;;3.74;80.44;100811.88;5097437;28;8818;-59
2023/04/09 01:04:52;;;;;;;;;14.00;11.20;;;;;3.71;80.29;100815.56;5097664;28;8837;-59
2023/04/09 01:07:20;;;;;;;;;18.40;16.80;;;;;3.68;80.15;100819.16;5098097;28;8834;-59
2023/04/09 01:09:48;;;;;;;;;13.40;10.40;;;;;3.64;80.64;100820.16;5097594;28;8822;-59
2023/04/09 01:12:16;;;;;;;;;20.60;18.80;;;;;3.62;80.80;100813.28;5097699;28;9504;-58
2023/04/09 01:14:44;;;;;;;;;13.80;12.00;;;;;3.59;80.54;100819.50;5097650;28;8825;-59
2023/04/09 01:17:11;;;;;;;;;16.60;15.40;;;;;3.58;80.23;100817.78;5098392;28;9476;-59
2023/04/09 01:19:40;;;;;;;;;16.60;15.00;;;;;3.56;80.34;100813.50;5098076;28;8826;-58
2023/04/09 01:22:07;;;;;;;;;9.00;7.00;;;;;3.55;80.60;100815.25;5098251;28;8849;-58
2023/04/09 01:24:35;;;;;;;;;15.40;14.20;;;;;3.55;80.17;100814.41;5097988;28;8825;-60
2023/04/09 01:27:03;;;;;;;;;19.40;17.20;;;;;3.54;80.45;100816.19;5097962;28;8813;-59
2023/04/09 01:29:30;;;;;;;;;15.60;13.00;;;;;3.53;80.09;100818.84;5097517;28;8802;-58
2023/04/09 01:31:58;;;;;;;;;15.60;15.60;;;;;3.51;80.79;100818.94;5097691;28;8895;-61
2023/04/09 01:34:26;;;;;;;;;18.00;16.00;;;;;3.50;80.55;100819.84;5097857;28;9696;-58
2023/04/09 01:36:53;;;;;;;;;19.00;16.80;;;;;3.48;80.61;100815.56;5097842;28;8944;-59
2023/04/09 01:39:21;;;;;;;;;9.60;9.20;;;;;3.45;80.02;100815.66;5097889;28;9476;-61
2023/04/09 01:41:49;;;;;;;;;18.20;13.60;;;;;3.41;80.91;100820.16;5097529;28;8856;-59
2023/04/09 01:44:17;;;;;;;;;15.40;13.40;;;;;3.38;80.23;100820.28;5098124;28;8856;-59
2023/04/09 01:46:44;;;;;;;;;11.20;9.80;;;;;3.36;80.54;100814.22;5097435;28;8849;-60
2023/04/09 01:49:12;;;;;;;;;11.20;11.20;;;;;3.34;80.57;100816.03;5097737;28;8838;-58
2023/04/09 01:51:40;;;;;;;;;14.40;10.80;;;;;3.31;80.58;100818.78;5097422;28;8829;-60
2023/04/09 01:54:08;;;;;;;;;13.80;12.20;;;;;3.31;80.66;100812.66;5097701;28;8858;-59
2023/04/09 01:56:36;;;;;;;;;13.80;12.40;;;;;3.32;80.15;100809.97;5097304;28;9484;-60
2023/04/09 01:59:03;;;;;;;;;17.60;16.00;;;;;3.34;80.55;100813.41;5097185;28;8814;-61
2023/04/09 02:01:31;;;;;;;;;12.20;11.20;;;;;3.36;79.79;100806.34;5097200;28;8841;-60
2023/04/09 02:03:59;;;;;;;;;9.60;9.40;;;;;3.40;80.16;100813.19;5097025;28;8899;-59
2023/04/09 02:06:27;;;;;;;;;13.40;10.00;;;;;3.40;80.47;100810.56;5096996;28;8817;-59
2023/04/09 02:08:55;;;;;;;;;15.20;13.00;;;;;3.37;80.04;100805.41;5096719;28;8837;-60
2023/04/09 02:11:22;;;;;;;;;10.00;8.80;;;;;3.35;80.17;100809.00;5097187;28;8814;-58
2023/04/09 02:13:50;;;;;;;;;18.80;14.20;;;;;3.33;79.95;100805.59;5097274;28;8848;-58
2023/04/09 02:16:18;;;;;;;;;6.80;5.60;;;;;3.33;79.92;100810.84;5097244;28;8832;-60
2023/04/09 02:18:46;;;;;;;;;12.20;10.80;;;;;3.33;80.34;100810.84;5096828;28;8830;-60
2023/04/09 02:21:14;;;;;;;;;13.40;11.20;;;;;3.32;80.39;100815.25;5096958;28;8848;-58
2023/04/09 02:23:57;;;;;;;;;14.20;12.80;;;;;3.33;80.34;100806.44;5096663;28;8814;-60
2023/04/09 02:26:24;;;;;;;;;16.60;14.80;;;;;3.35;80.35;100814.28;5096748;28;8895;-57
2023/04/09 02:28:52;;;;;;;;;16.40;14.20;;;;;3.35;80.38;100809.88;5096074;28;8809;-57
2023/04/09 02:31:20;;;;;;;;;15.80;15.00;;;;;3.36;79.76;100808.97;5096632;28;8826;-58
2023/04/09 02:33:48;;;;;;;;;14.80;12.40;;;;;3.38;79.83;100807.13;5095952;28;8830;-59
2023/04/09 02:36:16;;;;;;;;;17.00;16.00;;;;;3.38;80.21;100799.22;5096621;28;8911;-59
2023/04/09 02:38:43;;;;;;;;;10.00;10.00;;;;;3.37;80.01;100797.53;5096920;28;8818;-58
2023/04/09 02:41:11;;;;;;;;;16.80;15.40;;;;;3.35;80.07;100799.34;5096542;28;8852;-58
2023/04/09 02:43:39;;;;;;;;;12.20;11.60;;;;;3.32;80.29;100798.63;5096852;28;8869;-59
2023/04/09 02:46:06;;;;;;;;;12.60;10.80;;;;;3.26;79.64;100794.41;5096588;28;9472;-58
2023/04/09 02:48:34;;;;;;;;;13.40;11.20;;;;;3.19;79.88;100798.16;5096586;28;9597;-58
2023/04/09 02:51:01;;;;;;;;;9.20;6.60;;;;;3.11;80.05;100791.50;5096606;28;8842;-57
2023/04/09 02:53:29;;;;;;;;;12.20;12.20;;;;;3.03;80.66;100788.28;5096317;28;8814;-61
2023/04/09 02:55:57;;;;;;;;;13.00;12.20;;;;;2.94;80.36;100786.81;5096470;28;8830;-58
2023/04/09 02:58:25;;;;;;;;;13.20;12.40;;;;;2.86;80.29;100788.84;5095920;28;8836;-58
2023/04/09 03:00:52;;;;;;;;;11.60;10.40;;;;;2.79;80.95;100782.09;5095951;28;8826;-59
2023/04/09 03:03:20;;;;;;;;;3.40;1.80;;;;;2.72;80.88;100785.84;5096442;28;8825;-59
2023/04/09 03:05:48;;;;;;;;;10.00;8.40;;;;;2.67;81.42;100795.69;5096401;28;8864;-59
2023/04/09 03:08:16;;;;;;;;;8.40;8.40;;;;;2.60;81.02;100790.66;5095651;28;8817;-59
2023/04/09 03:10:43;;;;;;;;;7.40;7.00;;;;;2.54;81.08;100785.59;5096107;28;8818;-58
2023/04/09 03:13:11;;;;;;;;;10.40;10.40;;;;;2.48;80.44;100785.81;5095842;28;8814;-58
2023/04/09 03:15:38;;;;;;;;;11.20;10.80;;;;;2.42;81.30;100784.25;5096064;28;8838;-58
2023/04/09 03:18:06;;;;;;;;;10.00;6.20;;;;;2.39;80.72;100781.75;5096222;28;8810;-58
2023/04/09 03:20:35;;;;;;;;;6.20;6.00;;;;;2.35;81.38;100782.72;5096270;28;8826;-58
2023/04/09 03:23:03;;;;;;;;;14.00;12.20;;;;;2.33;81.64;100781.06;5095852;28;8837;-58
2023/04/09 03:25:30;;;;;;;;;9.00;8.60;;;;;2.32;80.68;100774.97;5096255;28;8927;-58
2023/04/09 03:27:58;;;;;;;;;12.60;10.00;;;;;2.33;81.03;100775.81;5095942;28;8822;-58
2023/04/09 03:30:26;;;;;;;;;13.40;12.00;;;;;2.33;81.49;100775.81;5096119;28;8846;-58
2023/04/09 03:32:54;;;;;;;;;16.60;13.00;;;;;2.33;81.46;100776.69;5096006;28;8849;-58
2023/04/09 03:35:21;;;;;;;;;9.00;9.00;;;;;2.34;81.00;100769.66;5096007;28;8853;-58
2023/04/09 03:37:49;;;;;;;;;14.20;12.40;;;;;2.36;81.28;100775.72;5096002;28;8822;-58
2023/04/09 03:40:17;;;;;;;;;14.00;13.80;;;;;2.36;81.27;100770.47;5095285;28;8843;-58
2023/04/09 03:42:45;;;;;;;;;12.20;12.20;;;;;2.34;80.78;100767.88;5096210;28;8834;-58
2023/04/09 03:45:13;;;;;;;;;12.60;10.40;;;;;2.33;80.80;100771.44;5096059;28;8829;-58
2023/04/09 03:47:40;;;;;;;;;15.40;13.80;;;;;2.32;81.36;100776.72;5095935;28;8840;-59
2023/04/09 03:50:08;;;;;;;;;12.00;12.00;;;;;2.29;80.89;100775.03;5095670;28;8825;-59
2023/04/09 03:52:36;;;;;;;;;11.60;11.00;;;;;2.26;81.26;100769.06;5095716;28;8842;-61
2023/04/09 03:55:03;;;;;;;;;12.20;10.60;;;;;2.23;81.10;100769.16;5095815;28;8822;-60
2023/04/09 03:57:32;;;;;;;;;13.80;12.20;;;;;2.19;81.22;100772.81;5094981;28;8822;-59
2023/04/09 03:59:59;;;;;;;;;12.00;11.20;;;;;2.14;80.74;100767.66;5095345;28;8853;-59
2023/04/09 04:02:30;;;;;;;;;10.80;10.80;;;;;2.12;81.48;100766.88;5095753;28;8826;-59
2023/04/09 04:04:58;;;;;;;;;5.20;5.20;;;;;2.08;81.20;100764.38;5095830;28;8818;-60
2023/04/09 04:07:26;;;;;;;;;8.60;8.60;;;;;2.05;80.83;100769.75;5096014;28;9499;-58
2023/04/09 04:09:54;;;;;;;;;10.00;9.40;;;;;2.00;81.39;100772.53;5095867;28;8829;-58
2023/04/09 04:12:21;;;;;;;;;9.40;7.60;;;;;1.97;81.23;100772.59;5095866;28;8810;-59
2023/04/09 04:14:49;;;;;;;;;12.20;12.00;;;;;1.94;81.53;100772.72;5095650;28;8864;-58
2023/04/09 04:17:17;;;;;;;;;10.00;9.40;;;;;1.95;81.13;100769.19;5095559;28;8910;-58
2023/04/09 04:19:44;;;;;;;;;13.60;10.00;;;;;1.96;81.21;100772.69;5095678;28;9494;-60
2023/04/09 04:22:12;;;;;;;;;13.00;10.80;;;;;1.96;81.69;100768.28;5098627;28;8837;-59
2023/04/09 04:24:40;;;;;;;;;6.00;6.00;;;;;1.97;81.44;100779.66;5099034;28;8814;-61
2023/04/09 04:27:08;;;;;;;;;9.40;9.40;;;;;1.97;80.98;100783.13;5099182;28;8814;-58
2023/04/09 04:29:36;;;;;;;;;9.60;9.60;;;;;1.96;80.98;100784.03;5098275;28;8813;-59
2023/04/09 04:32:04;;;;;;;;;9.00;6.80;;;;;1.93;81.45;100775.38;5098691;28;8852;-60
2023/04/09 04:34:31;;;;;;;;;8.20;7.40;;;;;1.89;81.00;100776.41;5099251;28;8818;-61
2023/04/09 04:36:59;;;;;;;;;10.00;8.60;;;;;1.86;81.28;100779.97;5098865;28;8818;-59
2023/04/09 04:39:26;;;;;;;;;14.60;13.00;;;;;1.86;81.19;100779.09;5098939;28;8829;-61
2023/04/09 04:41:54;;;;;;;;;10.80;10.40;;;;;1.84;80.63;100778.31;5099036;28;8818;-60
2023/04/09 04:44:22;;;;;;;;;12.40;12.00;;;;;1.86;80.76;100781.72;5099015;28;8911;-58
2023/04/09 04:46:50;;;;;;;;;11.20;10.80;;;;;1.89;81.19;100789.53;5098853;28;9604;-58
2023/04/09 04:49:18;;;;;;;;;9.20;9.20;;;;;1.85;80.41;100783.50;5098612;28;8875;-58
2023/04/09 04:51:45;;;;;;;;;6.80;6.20;;;;;1.83;81.08;100789.72;5098697;28;8842;-58
2023/04/09 04:54:13;;;;;;;;;10.80;7.40;;;;;1.82;81.21;100793.25;5098770;28;8814;-59
2023/04/09 04:56:41;;;;;;;;;5.20;5.20;;;;;1.79;80.92;100793.31;5098408;28;8910;-58
2023/04/09 04:59:09;;;;;;;;;8.60;7.00;;;;;1.76;80.84;100786.41;5098186;28;8814;-60
2023/04/09 05:01:36;;;;;;;;;12.60;12.20;;;;;1.76;80.91;100788.19;5098631;28;8838;-58
2023/04/09 05:04:04;;;;;;;;;10.60;10.20;;;;;1.77;81.14;100790.78;5097895;28;8834;-58
2023/04/09 05:06:32;;;;;;;;;8.80;8.60;;;;;1.76;81.11;100786.41;5098152;28;8826;-61
2023/04/09 05:09:00;;;;;;;;;12.00;11.00;;;;;1.77;81.39;100789.91;5098282;28;8814;-58
2023/04/09 05:11:29;;;;;;;;;10.00;6.00;;;;;1.77;80.86;100790.78;5098546;28;8814;-61
2023/04/09 05:13:57;;;;;;;;;9.60;9.60;;;;;1.78;81.04;100795.09;5098037;28;8830;-60
2023/04/09 05:16:24;;;;;;;;;9.60;9.20;;;;;1.81;80.78;100781.03;5098290;28;9565;-61
2023/04/09 05:18:52;;;;;;;;;17.20;15.60;;;;;1.87;80.80;100781.69;5098248;28;8821;-58
2023/04/09 05:21:20;;;;;;;;;12.40;12.40;;;;;1.94;80.58;100780.59;5098304;28;8861;-59
2023/04/09 05:23:48;;;;;;;;;8.40;4.40;;;;;2.00;81.01;100782.16;5098029;28;8818;-58
2023/04/09 05:26:16;;;;;;;;;11.40;7.40;;;;;2.03;80.48;100779.44;5098035;28;8841;-60
2023/04/09 05:28:43;;;;;;;;;16.80;12.00;;;;;2.05;80.29;100786.34;5097531;28;8809;-60
2023/04/09 05:31:11;;;;;;;;;15.80;13.80;;;;;2.07;80.07;100795.06;5098088;28;8833;-61
2023/04/09 05:33:39;;;;;;;;;9.40;8.40;;;;;2.11;80.41;100793.19;5097609;28;9877;-59
2023/04/09 05:36:08;;;;;;;;;14.60;12.20;;;;;2.15;80.40;100781.69;5098178;28;8859;-59
2023/04/09 05:38:35;;;;;;;;;8.20;7.00;;;;;2.19;80.28;100789.41;5097843;28;8906;-61
2023/04/09 05:41:03;;;;;;;;;15.40;12.60;;;;;2.25;79.46;100783.97;5097891;28;8882;-58
2023/04/09 05:43:30;;;;;;;;;20.20;18.60;;;;;2.32;80.02;100787.22;5098048;28;8850;-59
2023/04/09 05:45:58;;;;;;;;;18.60;16.80;;;;;2.41;79.84;100787.78;5097376;28;8813;-58
2023/04/09 05:48:26;;;;;;;;;12.00;12.00;;;;;2.51;79.68;100790.97;5097315;28;8825;-58
2023/04/09 05:50:54;;;;;;;;;19.40;18.60;;;;;2.62;79.66;100788.84;5097568;28;8822;-59
2023/04/09 05:53:22;;;;;;;;;22.00;19.80;;;;;2.71;79.65;100792.03;5097642;28;8891;-58
2023/04/09 05:55:50;;;;;;;;;19.60;18.80;;;;;2.81;79.77;100788.16;5097636;28;8937;-60
2023/04/09 05:58:18;;;;;;;;;15.60;13.00;;;;;2.93;78.58;100784.22;5097025;28;8830;-60
2023/04/09 06:00:46;;;;;;;;;16.60;16.40;;;;;3.05;78.48;100792.56;5097346;28;8861;-61
2023/04/09 06:03:14;;;;;;;;;23.00;20.60;;;;;3.19;78.28;100792.91;5097171;28;8930;-60
2023/04/09 06:05:42;;;;;;;;;19.40;15.60;;;;;3.31;78.07;100795.09;5097110;28;8818;-58
2023/04/09 06:08:09;;;;;;;;;24.00;23.60;;;;;3.43;77.78;100789.41;5097379;28;8810;-60
2023/04/09 06:10:37;;;;;;;;;23.00;20.80;;;;;3.56;77.23;100792.44;5096378;28;8845;-58
2023/04/09 06:13:07;;;;;;;;;11.20;9.60;;;;;3.67;77.32;100791.13;5097260;28;8818;-61
2023/04/09 06:15:35;;;;;;;;;13.80;13.80;;;;;3.83;77.68;100801.00;5097210;28;9561;-59
2023/04/09 06:18:03;;;;;;;;;18.20;17.40;;;;;3.96;76.97;100798.75;5096880;28;8857;-57
2023/04/09 06:20:30;;;;;;;;;18.60;17.20;;;;;4.07;76.71;100797.41;5096778;28;8830;-60
2023/04/09 06:22:58;;;;;;;;;16.80;15.40;;;;;4.17;76.62;100793.47;5096767;28;8864;-60
2023/04/09 06:25:26;;;;;;;;;24.20;17.60;;;;;4.30;76.70;100794.72;5096528;28;8821;-58
2023/04/09 06:27:54;;;;;;;;;17.40;15.60;;;;;4.40;76.51;100800.47;5096427;28;8830;-60
2023/04/09 06:30:21;;;;;;;;;13.00;12.80;;;;;4.50;76.34;100796.53;5096738;28;8862;-61
2023/04/09 06:32:49;;;;;;;;;15.20;13.00;;;;;4.61;76.59;100796.91;5096718;28;8838;-58
2023/04/09 06:35:21;;;;;;;;;20.40;18.40;;;;;4.77;75.84;100787.44;5096728;28;9577;-57
2023/04/09 06:37:49;;;;;;;;;21.00;19.40;;;;;4.96;76.05;100793.66;5096494;28;9623;-58
2023/04/09 06:40:17;;;;;;;;;15.60;14.60;;;;;5.16;75.80;100796.28;5096655;28;9515;-58
2023/04/09 06:42:48;;;;;;;;;21.40;18.20;;;;;5.34;75.45;100793.69;5096185;28;8838;-58
2023/04/09 06:45:16;;;;;;;;;20.60;18.60;;;;;5.53;74.69;100793.72;5096670;28;9502;-58
2023/04/09 06:47:43;;;;;;;;;17.00;15.40;;;;;5.69;74.73;100795.56;5096888;28;8834;-60
2023/04/09 06:50:11;;;;;;;;;21.00;18.40;;;;;5.86;74.12;100792.19;5096275;28;8842;-60
2023/04/09 06:52:39;;;;;;;;;18.00;15.80;;;;;6.02;74.69;100791.41;5096142;28;8810;-60
2023/04/09 06:55:06;;;;;;;;;21.60;19.40;;;;;6.16;74.47;100788.94;5095458;28;8840;-59
2023/04/09 06:57:34;;;;;;;;;19.60;18.20;;;;;6.28;73.84;100795.41;5096348;28;8848;-60
2023/04/09 07:00:02;;;;;;;;;10.00;7.40;;;;;6.42;74.03;100791.19;5096247;28;8868;-60
2023/04/09 07:02:30;;;;;;;;;13.20;12.00;;;;;6.56;73.67;100791.34;5095795;28;8871;-60
2023/04/09 07:04:59;;;;;;;;;19.20;16.20;;;;;6.70;73.57;100793.31;5096376;28;8838;-59
2023/04/09 07:07:27;;;;;;;;;18.40;17.60;;;;;6.85;73.28;100788.09;5095818;28;8826;-58
2023/04/09 07:09:55;;;;;;;;;22.80;20.20;;;;;7.02;73.29;100787.22;5096102;28;8826;-59
2023/04/09 07:12:22;;;;;;;;;21.60;17.20;;;;;7.15;72.97;100785.66;5095961;28;8849;-59
2023/04/09 07:14:51;;;;;;;;;21.00;20.00;;;;;7.31;72.81;100791.84;5096338;28;8890;-60
2023/04/09 07:17:18;;;;;;;;;9.00;6.00;;;;;7.46;72.44;100786.63;5096402;28;8898;-60
2023/04/09 07:19:46;;;;;;;;;17.00;13.80;;;;;7.61;72.38;100779.63;5095959;28;8839;-58
2023/04/09 07:22:14;;;;;;;;;19.60;17.20;;;;;7.77;71.97;100781.38;5094528;28;8900;-59
2023/04/09 07:24:42;;;;;;;;;19.20;16.00;;;;;7.89;72.03;100781.53;5095765;28;9513;-58
2023/04/09 07:27:10;;;;;;;;;19.20;17.00;;;;;8.04;71.94;100777.16;5096291;28;8861;-58
2023/04/09 07:29:37;;;;;;;;;6.60;6.20;;;;;8.18;71.73;100778.13;5095776;28;8865;-58
2023/04/09 07:32:05;;;;;;;;;14.60;13.80;;;;;8.35;71.69;100782.50;5096094;28;9576;-59
2023/04/09 07:34:33;;;;;;;;;20.60;18.00;;;;;8.51;71.17;100789.50;5096133;28;8850;-60
2023/04/09 07:37:00;;;;;;;;;18.60;16.20;;;;;8.67;71.22;100785.00;5096059;28;8838;-59
2023/04/09 07:39:28;;;;;;;;;12.80;12.00;;;;;8.83;70.70;100788.47;5096094;28;8826;-58
2023/04/09 07:41:56;;;;;;;;;23.20;21.00;;;;;9.01;70.65;100790.03;5096362;28;8830;-60
2023/04/09 07:44:24;;;;;;;;;7.00;5.25;;;;;9.17;69.93;100795.28;5095342;28;8830;-58
2023/04/09 07:46:52;;;;;;;;;10.00;9.60;;;;;9.33;70.55;100791.59;5095129;28;8834;-59
2023/04/09 07:49:20;;;;;;;;;11.25;10.50;;;;;9.51;70.35;100787.84;5096062;28;8832;-60
2023/04/09 07:51:48;;;;;;;;;16.50;15.75;;;;;9.68;69.90;100786.75;5095552;28;8809;-60
2023/04/09 07:54:16;;;;;;;;;22.00;21.20;;;;;9.84;69.05;100783.06;5095664;28;8973;-60
2023/04/09 07:56:43;;;;;;;;;18.75;16.00;;;;;10.03;69.25;100778.28;5099561;28;8837;-59
2023/04/09 07:59:11;;;;;;;;;19.00;19.00;;;;;10.20;68.73;100780.75;5099377;28;9175;-60
2023/04/09 08:01:39;;;;;;;;;12.75;12.00;;;;;10.38;68.52;100781.34;5099474;28;8976;-61
2023/04/09 08:04:07;;;;;;;;;18.00;17.00;;;;;10.55;68.36;100781.94;5099485;28;8829;-60
2023/04/09 08:06:36;;;;;;;;;19.50;16.00;;;;;10.71;68.55;100784.44;5099260;28;8826;-59
2023/04/09 08:09:04;;;;;;;;;17.50;14.75;;;;;10.87;67.87;100786.00;5098408;28;8842;-58
2023/04/09 08:11:32;;;;;;;;;15.50;14.00;;;;;11.03;67.62;100778.66;5098874;28;8818;-61
2023/04/09 08:14:01;;;;;;;;;18.50;18.00;;;;;11.19;67.48;100776.66;5098681;28;8871;-60
2023/04/09 08:16:30;;;;;;;;;22.00;20.00;;;;;11.34;67.35;100769.41;5098655;28;8833;-61
2023/04/09 08:18:58;;;;;;;;;23.00;20.00;;;;;11.49;67.46;100769.19;5098448;28;8972;-59
2023/04/09 08:21:25;;;;;;;;;15.25;14.00;;;;;11.67;67.39;100765.25;5097697;28;8823;-60
2023/04/09 08:23:58;;;;;;;;;19.25;18.00;;;;;11.85;66.66;100766.63;5097786;28;8836;-61
2023/04/09 08:26:25;;;;;;;;;20.50;15.75;;;;;12.04;66.84;100764.31;5098627;28;8814;-61
2023/04/09 08:28:54;;;;;;;;;18.50;18.00;;;;;12.17;66.43;100762.47;5098397;28;8838;-59
2023/04/09 08:31:21;;;;;;;;;14.50;12.75;;;;;12.29;66.36;100766.91;5097538;28;8854;-59
2023/04/09 08:33:49;;;;;;;;;19.25;16.25;;;;;12.44;66.54;100766.63;5097445;28;9846;-59
2023/04/09 08:36:17;;;;;;;;;5.33;4.00;;;;;12.64;65.76;100757.13;5097788;28;8844;-61
2023/04/09 08:38:46;;;;;;;;;9.50;9.50;;;;;12.85;65.37;100759.03;5096991;28;8879;-59
2023/04/09 08:41:14;;;;;;;;;15.75;14.00;;;;;13.06;64.77;100760.09;5097943;28;8822;-59
2023/04/09 08:43:42;;;;;;;;;15.25;14.00;;;;;13.21;64.79;100758.09;5098363;28;8810;-59
2023/04/09 08:46:25;;;;;;;;;6.25;5.00;;;;;13.37;63.77;100766.63;5098194;28;9543;-59
2023/04/09 08:48:53;;;;;;;;;9.00;9.00;;;;;13.57;64.06;100756.03;5098424;28;8850;-59
2023/04/09 08:51:22;;;;;;;;;11.75;11.50;;;;;13.75;63.25;100759.94;5098679;28;8845;-59
2023/04/09 08:53:52;;;;;;;;;13.00;12.00;;;;;13.88;62.96;100765.19;5098607;28;8814;-60
2023/04/09 08:56:20;;;;;;;;;12.00;10.00;;;;;13.83;63.18;100757.50;5098405;28;8814;-59
2023/04/09 08:58:48;;;;;;;;;11.00;10.50;;;;;13.85;62.37;100766.28;5098215;28;8810;-59
2023/04/09 09:01:16;;;;;;;;;11.00;10.00;;;;;13.97;61.72;100749.19;5097427;28;8849;-61
2023/04/09 09:03:44;;;;;;;;;11.50;9.00;;;;;14.18;61.65;100752.03;5097698;28;8972;-58
2023/04/09 09:06:12;;;;;;;;;9.00;6.50;;;;;14.47;60.67;100758.50;5095676;28;8937;-61
2023/04/09 09:08:39;;;;;;;;;8.00;7.50;;;;;14.82;59.53;100743.03;5097274;28;8914;-60
2023/04/09 09:11:07;;;;;;;;;13.00;12.00;;;;;15.17;58.76;100749.75;5097356;28;8822;-59
2023/04/09 09:13:35;;;;;;;;;13.50;12.00;;;;;15.51;58.97;100737.00;5097346;28;8814;-59
2023/04/09 09:16:03;;;;;;;;;12.75;12.00;;;;;15.86;57.82;100745.50;5097508;28;8826;-59
2023/04/09 09:18:31;;;;;;;;;7.50;6.00;;;;;15.85;58.31;100744.63;5097656;28;8948;-60
2023/04/09 09:20:59;;;;;;;;;6.00;3.75;;;;;15.64;58.42;100751.06;5097223;28;8834;-59
2023/04/09 09:23:27;;;;;;;;;12.75;12.00;;;;;15.67;58.86;100756.16;5097648;28;8864;-59
2023/04/09 09:25:54;;;;;;;;;11.75;10.00;;;;;15.61;58.15;100752.19;5097703;28;8838;-59
2023/04/09 09:28:22;;;;;;;;;11.00;11.00;;;;;15.36;58.50;100755.31;5096996;28;8830;-59
2023/04/09 09:30:50;;;;;;;;;8.00;8.00;;;;;15.23;58.86;100749.25;5096643;28;9550;-59
2023/04/09 09:33:18;;;;;;;;;14.50;12.00;;;;;15.11;59.33;100754.81;5096684;28;9503;-60
2023/04/09 09:35:46;;;;;;;;;12.25;12.00;;;;;15.42;58.25;100748.53;5096577;28;8838;-59
2023/04/09 09:38:15;;;;;;;;;10.50;9.00;;;;;15.89;57.36;100745.22;5096795;28;9504;-59
2023/04/09 09:40:43;;;;;;;;;10.00;7.00;;;;;16.11;56.40;100739.63;5097212;28;8968;-62
2023/04/09 09:43:10;;;;;;;;;8.00;8.00;;;;;16.09;55.62;100752.38;5097182;28;8878;-61
2023/04/09 09:45:42;;;;;;;;;10.50;8.50;;;;;15.99;55.67;100743.44;5096840;28;8836;-59
2023/04/09 09:48:10;;;;;;;;;6.75;6.25;;;;;15.89;55.88;100742.53;5097106;28;8939;-62
2023/04/09 09:50:38;;;;;;;;;13.25;13.00;;;;;15.86;55.97;100740.13;5096829;28;8887;-60
2023/04/09 09:53:06;;;;;;;;;9.75;9.75;;;;;16.04;55.51;100739.34;5096879;28;9006;-59
2023/04/09 09:55:34;;;;;;;;;8.75;7.75;;;;;16.51;54.41;100735.94;5096077;28;8813;-59
2023/04/09 09:58:02;;;;;;;;;9.75;9.00;;;;;17.33;52.87;100736.13;5096878;28;8837;-59
2023/04/09 10:00:30;;;;;;;;;6.50;5.50;;;;;17.89;52.09;100734.28;5096785;28;8838;-59
2023/04/09 10:02:58;;;;;;;;;12.00;11.50;;;;;18.43;51.06;100728.88;5096118;28;8891;-60
2023/04/09 10:05:28;;;;;;;;;15.50;14.00;;;;;18.92;49.76;100725.66;5096107;28;8822;-61
2023/04/09 10:07:55;;;;;;;;;10.60;9.40;;;;;19.01;49.85;100721.16;5097085;28;8882;-60
2023/04/09 10:10:23;;;;;;;;;12.80;12.40;;;;;19.20;49.73;100718.31;5097037;28;8833;-58
2023/04/09 10:12:51;;;;;;;;;13.80;11.80;;;;;19.22;50.16;100727.94;5096176;28;8972;-59
2023/04/09 10:15:19;;;;;;;;;8.00;7.40;;;;;19.37;49.16;100717.41;5095032;28;8822;-61
2023/04/09 10:17:47;;;;;;;;;11.60;10.80;;;;;19.41;49.19;100706.13;5095781;28;8875;-60
2023/04/09 10:20:15;;;;;;;;;10.00;10.00;;;;;19.42;49.21;100713.22;5095885;28;8945;-60
2023/04/09 10:22:43;;;;;;;;;13.00;13.00;;;;;19.01;50.43;100713.03;5095899;28;8887;-59
2023/04/09 10:25:11;;;;;;;;;8.60;6.60;;;;;18.83;50.15;100710.38;5096199;28;8844;-61
2023/04/09 10:27:38;;;;;;;;;15.40;10.00;;;;;18.98;50.03;100711.50;5095883;28;9704;-59
2023/04/09 10:30:09;;;;;;;;;11.40;10.40;;;;;18.91;50.38;100710.44;5095130;28;8841;-60
2023/04/09 10:32:37;;;;;;;;;10.40;9.00;;;;;18.76;50.57;100709.28;5095465;28;8842;-59
2023/04/09 10:35:05;;;;;;;;;12.00;10.40;;;;;18.48;50.60;100713.09;5095608;28;8841;-61
2023/04/09 10:37:33;;;;;;;;;12.20;9.20;;;;;18.75;49.88;100707.59;5095685;28;8964;-59
2023/04/09 10:40:01;;;;;;;;;14.40;10.60;;;;;19.60;47.86;100695.09;5095842;28;8826;-59
2023/04/09 10:42:31;;;;;;;;;13.60;12.40;;;;;19.48;48.46;100699.06;5096179;28;8822;-60
2023/04/09 10:44:59;;;;;;;;;9.00;7.40;;;;;18.98;49.39;100700.72;5096413;28;8872;-59
2023/04/09 10:47:27;;;;;;;;;14.80;13.00;;;;;18.49;50.50;100695.03;5096155;28;8932;-60
2023/04/09 10:49:55;;;;;;;;;10.80;10.00;;;;;18.08;51.50;100707.19;5096249;28;8834;-60
2023/04/09 10:52:23;;;;;;;;;7.40;6.80;;;;;17.76;52.29;100698.72;5095964;28;8849;-60
2023/04/09 10:54:51;;;;;;;;;13.00;12.00;;;;;17.48;52.39;100707.78;5096053;28;8844;-60
2023/04/09 10:57:19;;;;;;;;;13.60;11.60;;;;;17.27;52.80;100704.44;5095557;28;8826;-60
2023/04/09 10:59:47;;;;;;;;;12.40;11.60;;;;;17.34;52.78;100694.78;5095489;28;8964;-60
2023/04/09 11:02:15;;;;;;;;;16.80;13.80;;;;;17.59;51.76;100688.75;5095409;28;8924;-60
2023/04/09 11:04:43;;;;;;;;;11.40;10.60;;;;;17.55;52.24;100686.50;5094949;28;8841;-59
2023/04/09 11:07:12;;;;;;;;;10.40;9.20;;;;;17.66;50.74;100692.56;5094344;28;8825;-60
2023/04/09 11:09:39;;;;;;;;;14.60;12.80;;;;;17.69;51.20;100689.53;5094675;28;8864;-60
2023/04/09 11:12:07;;;;;;;;;12.60;11.60;;;;;17.71;51.01;100687.56;5094748;28;8822;-60
2023/04/09 11:14:35;;;;;;;;;12.40;11.20;;;;;18.15;50.02;100681.34;5094716;28;8821;-59
2023/04/09 11:17:03;;;;;;;;;9.80;7.40;;;;;18.22;50.10;100682.44;5094039;28;8817;-59
2023/04/09 11:19:31;;;;;;;;;11.60;10.00;;;;;18.01;50.68;100684.56;5093846;28;8842;-60
2023/04/09 11:21:59;;;;;;;;;13.60;11.20;;;;;18.13;49.69;100677.94;5094259;28;9535;-59
2023/04/09 11:24:27;;;;;;;;;14.60;13.00;;;;;17.85;50.57;100687.06;5093901;28;8879;-59
2023/04/09 11:26:55;;;;;;;;;3.00;3.00;;;;;17.83;49.70;100678.28;5094227;28;8814;-61
2023/04/09 11:29:23;;;;;;;;;14.20;12.00;;;;;19.20;47.82;100678.63;5094302;28;8841;-60